Terminal Aerodrome Forecast
Issued by NWS Sterling, VA

Current Version | Previous Version | Text Only | Print | Product List | Glossary Off
Versions: 1 2 3 4 5 6 7 8 9 10 11 12 13 14 15 16 17 18 19 20 21 22 23 24 25

262
FTUS41 KLWX 280451 AAB
TAFDCA
TAF AMD
KDCA 280451Z 2805/2824 VRB03KT P6SM BKN013
     FM281400 07007KT P6SM OVC008
     FM281500 08007KT 5SM -RA OVC008=

USA.gov is the U.S. government's official web portal to all federal, state and local government web resources and services.